Denver, Colorado
Traffic Map
Current Weather Conditions
Denver, Colorado
Broken Clouds
Broken Clouds
20°
Feels Like: 20°
Wind Chill: 20° Ceiling: 16000
Heat Index: 20° Visibility: 15mi
Dew Point: Wind: 1036mph
Humidity: 26% Direction: ° ()
Pressure: 30in Gusts: 0mph
Raw Report DataKBJC 232350Z 000900KT 15SM SCT060 BKN160 20/00 A3000
Traffic Incident Summary
Active as of:
Severity:
Category:
InformationThere was an issue retrieving the traffic information for this location. Please try a different location or try again shortly.
Advertisements